This is the latest recevied weather packets stored in our database for station/object WW3TRG. If no packets are shown the sender has not sent any weather packets the latest 10 day(s).
| Time | Temp. | Humidity | Pressure | Rain* | Wind** | Luminosity | Snow |
|---|---|---|---|---|---|---|---|
| 1778004525 | 28.89° C | 36% | 1007.5 hPa | 0 mm | - | 673 W/m² | - |
| 1778004222 | 28.33° C | 36% | 1007.7 hPa | 0 mm | - | 685 W/m² | - |
| 1778003919 | 28.33° C | 37% | 1007.8 hPa | 0 mm | - | 674 W/m² | - |
| 1778003615 | 28.33° C | 36% | 1007.6 hPa | 0 mm | - | 691 W/m² | - |
| 1778003312 | 28.33° C | 35% | 1008 hPa | 0 mm | - | 569 W/m² | - |
| 1778003009 | 28.89° C | 38% | 1007.9 hPa | 0 mm | - | 692 W/m² | - |
| 1778002705 | 28.33° C | 39% | 1007.8 hPa | 0 mm | - | 547 W/m² | - |
| 1778002401 | 28.33° C | 40% | 1007.7 hPa | 0 mm | - | 744 W/m² | - |
| 1778002099 | 27.78° C | 42% | 1007.7 hPa | 0 mm | - | 700 W/m² | - |
| 1778001797 | 27.22° C | 42% | 1007.7 hPa | 0 mm | - | 619 W/m² | - |
| 1778001496 | 27.22° C | 43% | 1007.8 hPa | 0 mm | - | 681 W/m² | - |
| 1778001193 | 27.22° C | 41% | 1008.1 hPa | 0 mm | - | 636 W/m² | - |
| 1778000889 | 27.78° C | 43% | 1008.1 hPa | 0 mm | - | 548 W/m² | - |
| 1778000587 | 27.22° C | 44% | 1007.9 hPa | 0 mm | - | 478 W/m² | - |
| 1778000282 | 26.67° C | 44% | 1008 hPa | 0 mm | - | 275 W/m² | - |
| 1777999978 | 26.67° C | 46% | 1008.1 hPa | 0 mm | - | 643 W/m² | - |
| 1777999673 | 26.67° C | 46% | 1008.3 hPa | 0 mm | - | 623 W/m² | - |
| 1777999371 | 26.67° C | 45% | 1008.5 hPa | 0 mm | - | 483 W/m² | - |
| 1777999069 | 26.67° C | 46% | 1008.4 hPa | 0 mm | - | 647 W/m² | - |
| 1777998767 | 27.22° C | 53% | 1008.5 hPa | 0 mm | - | 659 W/m² | - |
| 1777998465 | 26.67° C | 50% | 1008.9 hPa | 0 mm | - | 707 W/m² | - |
| 1777998161 | 26.11° C | 47% | 1008.7 hPa | 0 mm | - | 721 W/m² | - |
| 1777997858 | 26.11° C | 47% | 1008.7 hPa | 0 mm | - | 662 W/m² | - |
| 1777997556 | 25.56° C | 48% | 1008.9 hPa | 0 mm | - | 621 W/m² | - |
| 1777997253 | 25.56° C | 52% | 1008.8 hPa | 0 mm | - | 712 W/m² | - |
* Rain latest hour (hover to see other rain measurements)
** Current wind speed in m/s (hover to see current wind gust speed)